EKOD/ODE METAR and TAF weather

Enter ICAO airport designator
Station Type Date Time Source
EKOD METAR 2021/09/23 15:50 UTC NOAA

EKOD 231550Z 28030G46KT 240V300 9999 FEW034 SCT040 BKN070 13/07 Q1002


Station Type Date Time Source
EKOD Decoded METAR 2021/09/23 15:50 UTC NOAA

Odense / Beldringe, Denmark (EKOD) 55-29N 010-20E 17M
Sep 23, 2021 - 11:50 AM EDT / 2021.09.23 1550 UTC
Wind: from the W (280 degrees) at 35 MPH (30 KT) gusting to 53 MPH (46 KT) (direction variable):0
Visibility: greater than 7 mile(s):0
Sky conditions: mostly cloudy
Temperature: 55 F (13 C)
Dew Point: 44 F (7 C)
Relative Humidity: 66%
Pressure (altimeter): 29.59 in. Hg (1002 hPa)
ob: EKOD 231550Z 28030G46KT 240V300 9999 FEW034 SCT040 BKN070 13/07 Q1002
cycle: 16

Station Type Date Time Source
EKOD TAF 2015/04/20 17:00 UTC NOAA

TAF
AMD EKOD 201701Z 2017/2018 CNL

Example: see airport list